createdAt,value
2022-12-28T00:01:28.505Z,100720.38
2022-12-28T00:03:55.820Z,100716.75
2022-12-28T00:06:23.670Z,100730.69
2022-12-28T00:08:52.368Z,100726.22
2022-12-28T00:11:28.533Z,100708.66
2022-12-28T00:13:58.941Z,100718.19
2022-12-28T00:16:27.957Z,100714.56
2022-12-28T00:18:55.437Z,100702.56
2022-12-28T00:21:22.203Z,100705.63
2022-12-28T00:23:50.051Z,100715.94
2022-12-28T00:26:16.734Z,100708.41
2022-12-28T00:28:43.735Z,100714.28
2022-12-28T00:31:10.844Z,100715.09
2022-12-28T00:33:37.543Z,100716.53
2022-12-28T00:36:04.301Z,100719.84
2022-12-28T00:38:34.194Z,100709.28
2022-12-28T00:41:00.963Z,100703.97
2022-12-28T00:43:27.757Z,100705.13
2022-12-28T00:45:54.427Z,100702.34
2022-12-28T00:48:21.211Z,100697.03
2022-12-28T00:50:47.849Z,100694.25
2022-12-28T00:53:14.837Z,100704.03
2022-12-28T00:55:41.879Z,100689.25
2022-12-28T00:58:08.520Z,100696.78
2022-12-28T01:00:39.249Z,100708.78
2022-12-28T01:03:05.901Z,100710.16
2022-12-28T01:05:32.558Z,100702.91
2022-12-28T01:07:59.305Z,100694.56
2022-12-28T01:10:26.059Z,100704.91
2022-12-28T01:12:53.730Z,100694.84
2022-12-28T01:15:20.345Z,100712.72
2022-12-28T01:17:46.989Z,100707.13
2022-12-28T01:20:13.671Z,100702.66
2022-12-28T01:22:40.337Z,100705.47
2022-12-28T01:25:07.116Z,100708.56
2022-12-28T01:27:33.691Z,100694.06
2022-12-28T01:30:00.288Z,100697.69
2022-12-28T01:32:27.015Z,100696.00
2022-12-28T01:34:53.677Z,100695.16
2022-12-28T01:37:20.309Z,100696.28
2022-12-28T01:39:46.936Z,100686.25
2022-12-28T01:42:17.755Z,100679.81
2022-12-28T01:44:48.840Z,100669.78
2022-12-28T01:47:20.192Z,100667.84
2022-12-28T01:49:51.498Z,100675.63
2022-12-28T01:52:25.891Z,100680.38
2022-12-28T01:54:54.535Z,100669.22
2022-12-28T01:57:24.692Z,100677.91
2022-12-28T01:59:54.183Z,100682.63
2022-12-28T02:02:21.824Z,100681.81
2022-12-28T02:04:49.014Z,100682.91
2022-12-28T02:07:31.163Z,100675.66
2022-12-28T02:10:41.233Z,100677.66
2022-12-28T02:12:44.921Z,100688.81
2022-12-28T02:15:11.585Z,100679.88
2022-12-28T02:17:38.314Z,100679.88
2022-12-28T02:20:06.326Z,100674.31
2022-12-28T02:22:53.251Z,100658.69
2022-12-28T02:25:28.748Z,100671.78
2022-12-28T02:27:59.316Z,100659.00
2022-12-28T02:30:25.961Z,100672.09
2022-12-28T02:32:58.875Z,100666.53
2022-12-28T02:35:25.477Z,100665.69
2022-12-28T02:37:54.225Z,100674.06
2022-12-28T02:40:26.454Z,100654.53
2022-12-28T02:42:54.561Z,100654.81
2022-12-28T02:45:58.358Z,100649.22
2022-12-28T02:48:44.096Z,100648.72
2022-12-28T02:51:29.338Z,100649.81
2022-12-28T02:54:07.797Z,100648.97
2022-12-28T02:56:46.581Z,100653.72
2022-12-28T02:59:23.993Z,100647.31
2022-12-28T03:01:50.773Z,100643.69
2022-12-28T03:04:23.367Z,100644.53
2022-12-28T03:07:22.041Z,100637.28
2022-12-28T03:09:57.691Z,100644.00
2022-12-28T03:12:37.246Z,100643.16
2022-12-28T03:15:09.130Z,100638.41
2022-12-28T03:17:59.957Z,100635.91
2022-12-28T03:20:50.217Z,100649.00
2022-12-28T03:23:36.774Z,100635.91
2022-12-28T03:26:23.888Z,100629.78
2022-12-28T03:29:09.913Z,100626.97
2022-12-28T03:31:37.169Z,100628.94
2022-12-28T03:34:07.230Z,100625.34
2022-12-28T03:36:33.831Z,100621.72
2022-12-28T03:39:20.787Z,100624.50
2022-12-28T03:41:51.310Z,100618.09
2022-12-28T03:44:27.264Z,100620.03
2022-12-28T03:46:57.704Z,100616.41
2022-12-28T03:49:24.791Z,100611.13
2022-12-28T03:51:52.700Z,100613.91
2022-12-28T03:54:19.317Z,100607.50
2022-12-28T03:56:47.127Z,100608.34
2022-12-28T03:59:13.980Z,100601.94
2022-12-28T04:01:40.900Z,100600.28
2022-12-28T04:04:08.033Z,100591.09
2022-12-28T04:06:34.702Z,100588.28
2022-12-28T04:09:01.410Z,100590.25
2022-12-28T04:11:28.060Z,100581.88
2022-12-28T04:13:54.670Z,100580.22
2022-12-28T04:16:21.636Z,100572.69
2022-12-28T04:18:48.289Z,100568.53
2022-12-28T04:21:15.890Z,100574.91
2022-12-28T04:23:42.959Z,100576.91
2022-12-28T04:26:12.346Z,100563.75
2022-12-28T04:28:39.290Z,100574.38
2022-12-28T04:31:07.738Z,100564.06
2022-12-28T04:33:35.694Z,100561.56
2022-12-28T04:36:11.389Z,100559.91
2022-12-28T04:38:38.328Z,100557.09
2022-12-28T04:41:06.071Z,100547.09
2022-12-28T04:43:34.316Z,100556.28
2022-12-28T04:46:02.688Z,100545.44
2022-12-28T04:48:29.625Z,100546.78
2022-12-28T04:50:56.408Z,100543.47
2022-12-28T04:53:23.516Z,100549.06
2022-12-28T04:55:50.371Z,100541.81
2022-12-28T04:58:17.141Z,100534.28
2022-12-28T05:00:44.022Z,100532.63
2022-12-28T05:03:10.689Z,100523.41
2022-12-28T05:05:38.102Z,100527.31
2022-12-28T05:08:04.876Z,100518.97
2022-12-28T05:10:31.491Z,100516.19
2022-12-28T05:12:58.103Z,100511.75
2022-12-28T05:15:24.713Z,100504.19
2022-12-28T05:17:51.643Z,100506.16
2022-12-28T05:20:20.794Z,100505.34
2022-12-28T05:22:47.599Z,100499.75
2022-12-28T05:25:14.290Z,100505.34
2022-12-28T05:27:40.939Z,100492.50
2022-12-28T05:30:08.223Z,100498.09
2022-12-28T05:32:34.857Z,100497.25
2022-12-28T05:35:01.630Z,100494.47
2022-12-28T05:37:28.263Z,100489.19
2022-12-28T05:39:54.902Z,100494.75
2022-12-28T05:42:21.568Z,100486.38
2022-12-28T05:44:48.200Z,100473.28
2022-12-28T05:47:14.826Z,100479.97
2022-12-28T05:49:41.441Z,100472.75
2022-12-28T05:52:08.128Z,100472.75
2022-12-28T05:54:34.813Z,100468.84
2022-12-28T05:57:01.444Z,100467.19
2022-12-28T05:59:28.142Z,100468.31
2022-12-28T06:01:54.912Z,100457.16
2022-12-28T06:04:21.797Z,100458.84
2022-12-28T06:06:49.082Z,100461.06
2022-12-28T06:09:15.763Z,100456.31
2022-12-28T06:11:42.842Z,100455.50
2022-12-28T06:14:09.529Z,100441.56
2022-12-28T06:16:37.731Z,100447.13
2022-12-28T06:19:05.714Z,100441.03
2022-12-28T06:21:33.520Z,100441.03
2022-12-28T06:24:00.534Z,100435.47
2022-12-28T06:26:28.954Z,100434.91
2022-12-28T06:28:55.745Z,100428.22
2022-12-28T06:31:23.557Z,100425.44
2022-12-28T06:33:54.011Z,100426.56
2022-12-28T06:36:22.135Z,100422.66
2022-12-28T06:38:49.444Z,100410.66
2022-12-28T06:41:16.837Z,100414.28
2022-12-28T06:43:44.167Z,100412.63
2022-12-28T06:46:11.815Z,100410.94
2022-12-28T06:48:38.684Z,100414.56
2022-12-28T06:51:09.519Z,100402.91
2022-12-28T06:53:36.836Z,100394.53
2022-12-28T06:56:05.908Z,100394.53
2022-12-28T06:58:32.967Z,100395.66
2022-12-28T07:01:09.831Z,100397.63
2022-12-28T07:03:36.633Z,100398.44
2022-12-28T07:06:04.255Z,100381.72
2022-12-28T07:08:30.977Z,100388.13
2022-12-28T07:11:07.634Z,100383.69
2022-12-28T07:13:34.870Z,100385.63
2022-12-28T07:16:02.353Z,100382.00
2022-12-28T07:18:29.302Z,100372.81
2022-12-28T07:21:05.077Z,100372.28
2022-12-28T07:23:31.853Z,100375.09
2022-12-28T07:26:04.129Z,100369.50
2022-12-28T07:28:30.756Z,100369.50
2022-12-28T07:30:57.500Z,100359.22
2022-12-28T07:33:24.159Z,100362.00
2022-12-28T07:35:50.795Z,100362.00
2022-12-28T07:38:21.329Z,100365.06
2022-12-28T07:40:48.416Z,100361.44
2022-12-28T07:43:15.128Z,100358.66
2022-12-28T07:45:41.968Z,100365.34
2022-12-28T07:48:08.822Z,100363.66
2022-12-28T07:50:38.055Z,100362.88
2022-12-28T07:53:06.100Z,100362.03
2022-12-28T07:55:32.990Z,100353.69
2022-12-28T07:57:59.850Z,100367.88
2022-12-28T08:00:26.762Z,100352.84
2022-12-28T08:02:55.542Z,100347.56
2022-12-28T08:05:22.446Z,100348.38
2022-12-28T08:07:49.262Z,100348.66
2022-12-28T08:10:16.180Z,100344.25
2022-12-28T08:12:42.911Z,100347.03
2022-12-28T08:15:10.111Z,100349.81
2022-12-28T08:17:37.529Z,100345.34
2022-12-28T08:20:04.705Z,100344.25
2022-12-28T08:22:31.491Z,100341.47
2022-12-28T08:24:58.282Z,100332.25
2022-12-28T08:27:25.000Z,100340.06
2022-12-28T08:29:51.860Z,100329.75
2022-12-28T08:32:18.587Z,100331.72
2022-12-28T08:34:45.600Z,100330.03
2022-12-28T08:37:12.511Z,100310.53
2022-12-28T08:39:39.322Z,100326.41
2022-12-28T08:42:06.150Z,100318.06
2022-12-28T08:44:33.033Z,100313.66
2022-12-28T08:46:59.935Z,100310.84
2022-12-28T08:49:26.759Z,100312.81
2022-12-28T08:51:53.536Z,100306.41
2022-12-28T08:54:20.332Z,100310.84
2022-12-28T08:56:47.232Z,100314.75
2022-12-28T08:59:17.741Z,100300.00
2022-12-28T09:01:45.062Z,100294.72
2022-12-28T09:04:22.152Z,100289.13
2022-12-28T09:06:49.128Z,100295.53
2022-12-28T09:09:17.581Z,100280.78
2022-12-28T09:11:44.306Z,100274.38
2022-12-28T09:14:18.525Z,100271.59
2022-12-28T09:16:47.329Z,100264.06
2022-12-28T09:19:14.720Z,100267.19
2022-12-28T09:21:41.737Z,100268.81
2022-12-28T09:24:08.501Z,100259.66
2022-12-28T09:26:36.728Z,100255.19
2022-12-28T09:29:04.958Z,100265.22
2022-12-28T09:31:32.709Z,100267.19
2022-12-28T09:36:49.048Z,100258.28
2022-12-28T09:39:17.853Z,100244.34
2022-12-28T09:41:49.052Z,100254.66
2022-12-28T09:44:15.765Z,100249.41
2022-12-28T09:46:53.524Z,100241.84
2022-12-28T09:49:21.919Z,100248.56
2022-12-28T09:51:58.537Z,100231.84
2022-12-28T09:54:25.341Z,100237.44
2022-12-28T09:56:52.073Z,100226.56
2022-12-28T09:59:24.466Z,100226.28
2022-12-28T10:01:56.074Z,100219.06
2022-12-28T10:04:22.913Z,100220.72
2022-12-28T10:06:49.592Z,100209.88
2022-12-28T10:09:22.389Z,100196.78
2022-12-28T10:11:49.047Z,100194.00
2022-12-28T10:14:34.671Z,100193.16
2022-12-28T10:17:01.703Z,100197.06
2022-12-28T10:19:29.363Z,100198.72
2022-12-28T10:22:00.675Z,100188.69
2022-12-28T10:24:32.158Z,100189.53
2022-12-28T10:27:00.501Z,100169.22
2022-12-28T10:29:27.982Z,100171.47
2022-12-28T10:32:06.575Z,100160.34
2022-12-28T10:34:35.239Z,100158.66
2022-12-28T10:37:28.286Z,100144.47
2022-12-28T10:40:07.109Z,100138.91
2022-12-28T10:42:34.109Z,100135.28
2022-12-28T10:45:04.514Z,100138.91
2022-12-28T10:47:35.626Z,100133.63
2022-12-28T10:52:56.163Z,100101.03
2022-12-28T10:55:30.646Z,100101.31
2022-12-28T10:58:31.769Z,100108.84
2022-12-28T11:01:07.785Z,100092.13
2022-12-28T11:03:36.992Z,100075.44
2022-12-28T11:06:11.082Z,100077.09
2022-12-28T11:08:41.119Z,100069.88
2022-12-28T11:11:16.168Z,100055.09
2022-12-28T11:13:44.575Z,100047.91
2022-12-28T11:16:13.618Z,100037.56
2022-12-28T11:18:41.067Z,100033.97
2022-12-28T11:21:10.601Z,100026.75
2022-12-28T11:23:38.362Z,100007.25
2022-12-28T11:26:05.064Z,100002.53
2022-12-28T11:28:31.813Z,100010.06
2022-12-28T11:30:58.585Z,99988.91
2022-12-28T11:33:33.055Z,99983.31
2022-12-28T11:36:02.525Z,99973.31
2022-12-28T11:38:45.954Z,99967.47
2022-12-28T11:41:30.180Z,99958.28
2022-12-28T11:44:00.588Z,99950.75
2022-12-28T11:46:27.157Z,99937.94
2022-12-28T11:48:58.688Z,99923.19
2022-12-28T11:51:26.973Z,99927.09
2022-12-28T11:53:55.534Z,99924.31
2022-12-28T11:56:23.054Z,99908.44
2022-12-28T11:58:58.858Z,99906.81
2022-12-28T12:01:28.618Z,99886.19
2022-12-28T12:03:58.209Z,99884.56
2022-12-28T12:06:40.046Z,99873.41
2022-12-28T12:09:25.302Z,99878.97
2022-12-28T12:11:53.205Z,99868.13
2022-12-28T12:14:32.533Z,99860.63
2022-12-28T12:17:07.573Z,99845.56
2022-12-28T12:19:37.124Z,99853.38
2022-12-28T12:22:10.851Z,99823.59
2022-12-28T12:24:43.125Z,99819.97
2022-12-28T12:27:19.586Z,99822.78
2022-12-28T12:30:15.568Z,99805.22
2022-12-28T12:32:42.247Z,99794.09
2022-12-28T12:35:13.695Z,99777.41
2022-12-28T12:37:56.885Z,99771.00
2022-12-28T12:40:26.263Z,99759.88
2022-12-28T12:43:03.247Z,99744.31
2022-12-28T12:45:29.951Z,99740.72
2022-12-28T12:47:56.599Z,99732.34
2022-12-28T12:50:29.432Z,99724.00
2022-12-28T12:53:07.164Z,99719.28
2022-12-28T12:55:39.904Z,99720.41
2022-12-28T12:58:16.784Z,99693.38
2022-12-28T13:00:48.507Z,99680.59
2022-12-28T13:03:19.122Z,99689.78
2022-12-28T13:05:49.961Z,99654.72
2022-12-28T13:08:21.956Z,99649.16
2022-12-28T13:10:48.787Z,99647.50
2022-12-28T13:13:22.520Z,99641.06
2022-12-28T13:15:49.257Z,99621.59
2022-12-28T13:21:10.628Z,99606.03
2022-12-28T13:23:43.920Z,99589.34
2022-12-28T13:26:11.656Z,99590.13
2022-12-28T13:28:43.944Z,99588.50
2022-12-28T13:31:22.319Z,99581.00
2022-12-28T13:33:59.197Z,99569.84
2022-12-28T13:36:26.381Z,99557.06
2022-12-28T13:39:22.532Z,99559.03
2022-12-28T13:41:49.596Z,99546.75
2022-12-28T13:44:16.173Z,99545.09
2022-12-28T13:46:45.216Z,99541.19
2022-12-28T13:49:12.482Z,99539.53
2022-12-28T13:51:40.451Z,99523.97
2022-12-28T13:54:08.142Z,99520.34
2022-12-28T13:56:37.957Z,99509.22
2022-12-28T13:59:13.760Z,99514.78
2022-12-28T14:01:42.466Z,99498.09
2022-12-28T14:04:51.304Z,99513.66
2022-12-28T14:06:59.393Z,99509.22
2022-12-28T14:09:26.122Z,99486.97
2022-12-28T14:11:52.951Z,99465.81
2022-12-28T14:14:19.823Z,99488.09
2022-12-28T14:16:46.528Z,99477.78
2022-12-28T14:19:13.220Z,99462.25
2022-12-28T14:21:41.660Z,99459.47
2022-12-28T14:24:10.561Z,99458.31
2022-12-28T14:26:40.498Z,99458.31
2022-12-28T14:29:12.758Z,99458.63
2022-12-28T14:31:39.775Z,99448.31
2022-12-28T14:34:07.323Z,99442.75
2022-12-28T14:36:37.544Z,99449.13
2022-12-28T14:39:05.521Z,99430.81
2022-12-28T14:41:39.815Z,99447.81
2022-12-28T14:44:13.750Z,99413.59
2022-12-28T14:46:42.991Z,99429.97
2022-12-28T14:49:28.480Z,99406.06
2022-12-28T14:51:55.925Z,99418.03
2022-12-28T14:54:26.725Z,99419.16
2022-12-28T14:57:01.784Z,99400.19
2022-12-28T14:59:37.144Z,99403.28
2022-12-28T15:02:04.758Z,99411.63
2022-12-28T15:04:38.814Z,99406.06
2022-12-28T15:07:06.501Z,99401.03
2022-12-28T15:09:33.468Z,99408.84
2022-12-28T15:12:20.812Z,99413.28
2022-12-28T15:14:48.560Z,99410.78
2022-12-28T15:17:15.648Z,99405.22
2022-12-28T15:19:42.944Z,99398.84
2022-12-28T15:22:09.757Z,99397.19
2022-12-28T15:24:36.441Z,99413.59
2022-12-28T15:27:03.602Z,99401.63
2022-12-28T15:32:16.894Z,99396.06
2022-12-28T15:34:43.521Z,99392.16
2022-12-28T15:37:10.108Z,99390.50
2022-12-28T15:39:36.863Z,99391.31
2022-12-28T15:42:03.597Z,99396.06
2022-12-28T15:44:30.249Z,99391.31
2022-12-28T15:46:56.908Z,99397.72
2022-12-28T15:49:23.597Z,99387.72
2022-12-28T15:51:50.254Z,99377.09
2022-12-28T15:54:16.962Z,99363.50
2022-12-28T15:56:43.633Z,99378.22
2022-12-28T15:59:13.039Z,99371.53
2022-12-28T16:01:40.435Z,99366.78
2022-12-28T16:04:07.123Z,99364.00
2022-12-28T16:06:38.524Z,99367.63
2022-12-28T16:09:08.635Z,99358.75
2022-12-28T16:11:35.339Z,99354.84
2022-12-28T16:14:03.475Z,99364.31
2022-12-28T16:16:31.629Z,99371.84
2022-12-28T16:18:58.582Z,99366.28
2022-12-28T16:21:25.971Z,99371.84
2022-12-28T16:23:53.162Z,99377.09
2022-12-28T16:26:20.330Z,99388.53
2022-12-28T16:28:46.973Z,99382.66
2022-12-28T16:31:25.606Z,99390.50
2022-12-28T16:33:52.997Z,99388.22
2022-12-28T16:36:20.302Z,99388.22
2022-12-28T16:38:46.949Z,99389.38
2022-12-28T16:41:13.639Z,99382.97
2022-12-28T16:43:40.290Z,99386.59
2022-12-28T16:46:08.034Z,99392.16
2022-12-28T16:48:35.511Z,99386.59
2022-12-28T16:51:02.323Z,99393.81
2022-12-28T16:53:29.568Z,99381.00
2022-12-28T16:55:59.333Z,99391.84
2022-12-28T16:58:25.989Z,99396.59
2022-12-28T17:00:52.727Z,99402.44
2022-12-28T17:03:19.502Z,99389.38
2022-12-28T17:05:48.750Z,99389.38
2022-12-28T17:08:15.383Z,99388.84
2022-12-28T17:10:43.590Z,99399.97
2022-12-28T17:13:10.505Z,99387.72
2022-12-28T17:15:40.271Z,99390.50
2022-12-28T17:18:07.143Z,99407.53
2022-12-28T17:20:37.287Z,99396.88
2022-12-28T17:23:04.669Z,99409.97
2022-12-28T17:25:32.090Z,99399.66
2022-12-28T17:27:58.784Z,99408.00
2022-12-28T17:30:25.643Z,99386.88
2022-12-28T17:32:52.275Z,99390.50
2022-12-28T17:35:19.049Z,99400.78
2022-12-28T17:37:47.932Z,99401.63
2022-12-28T17:40:14.602Z,99397.19
2022-12-28T17:42:41.249Z,99397.19
2022-12-28T17:45:11.745Z,99399.97
2022-12-28T17:47:38.857Z,99393.59
2022-12-28T17:50:06.600Z,99374.94
2022-12-28T17:52:33.270Z,99386.88
2022-12-28T17:54:59.920Z,99395.56
2022-12-28T17:57:26.567Z,99395.56
2022-12-28T17:59:53.233Z,99395.56
2022-12-28T18:02:19.926Z,99386.88
2022-12-28T18:04:46.748Z,99382.47
2022-12-28T18:07:13.389Z,99372.97
2022-12-28T18:09:40.080Z,99369.34
2022-12-28T18:12:06.757Z,99363.78
2022-12-28T18:14:33.337Z,99367.75
2022-12-28T18:17:00.229Z,99371.34
2022-12-28T18:19:26.929Z,99358.22
2022-12-28T18:21:53.546Z,99358.22
2022-12-28T18:24:21.273Z,99375.25
2022-12-28T18:26:48.355Z,99359.38
2022-12-28T18:29:15.183Z,99359.38
2022-12-28T18:31:41.890Z,99372.13
2022-12-28T18:34:08.634Z,99354.66
2022-12-28T18:36:35.534Z,99346.31
2022-12-28T18:39:02.985Z,99336.31
2022-12-28T18:41:34.023Z,99340.41
2022-12-28T18:44:02.992Z,99332.88
2022-12-28T18:46:29.987Z,99343.38
2022-12-28T18:48:56.880Z,99345.84
2022-12-28T18:51:23.676Z,99341.34
2022-12-28T18:53:51.066Z,99337.59
2022-12-28T18:56:21.907Z,99335.84
2022-12-28T18:58:55.258Z,99339.34
2022-12-28T19:02:04.731Z,99340.88
2022-12-28T19:04:10.468Z,99332.41
2022-12-28T19:06:37.721Z,99338.97
2022-12-28T19:09:06.271Z,99339.97
2022-12-28T19:11:32.984Z,99360.47
2022-12-28T19:13:59.686Z,99355.94
2022-12-28T19:16:31.101Z,99367.25
2022-12-28T19:18:59.053Z,99363.84
2022-12-28T19:21:27.133Z,99364.03
2022-12-28T19:23:54.650Z,99359.78
2022-12-28T19:26:21.711Z,99358.81
2022-12-28T19:28:48.715Z,99359.34
2022-12-28T19:31:15.448Z,99369.84
2022-12-28T19:33:42.157Z,99362.00
2022-12-28T19:36:09.124Z,99364.16
2022-12-28T19:38:35.726Z,99357.94
2022-12-28T19:41:06.786Z,99361.22
2022-12-28T19:43:33.706Z,99362.53
2022-12-28T19:46:04.486Z,99355.84
2022-12-28T19:48:31.162Z,99355.53
2022-12-28T19:50:57.875Z,99353.22
2022-12-28T19:53:24.949Z,99357.66
2022-12-28T19:55:56.309Z,99340.63
2022-12-28T19:58:25.294Z,99347.88
2022-12-28T20:00:52.355Z,99346.69
2022-12-28T20:03:19.020Z,99347.53
2022-12-28T20:05:45.743Z,99360.00
2022-12-28T20:08:12.365Z,99346.91
2022-12-28T20:10:39.006Z,99356.88
2022-12-28T20:13:05.608Z,99363.28
2022-12-28T20:15:32.270Z,99349.34
2022-12-28T20:17:58.863Z,99344.59
2022-12-28T20:20:28.645Z,99350.19
2022-12-28T20:22:57.220Z,99342.63
2022-12-28T20:25:23.887Z,99332.31
2022-12-28T20:27:54.646Z,99342.63
2022-12-28T20:30:21.328Z,99349.88
2022-12-28T20:32:47.954Z,99351.00
2022-12-28T20:35:14.622Z,99341.50
2022-12-28T20:37:47.594Z,99343.47
2022-12-28T20:40:14.345Z,99341.50
2022-12-28T20:42:59.907Z,99333.16
2022-12-28T20:45:26.624Z,99332.31
2022-12-28T20:47:53.806Z,99318.38
2022-12-28T20:50:20.433Z,99316.41
2022-12-28T20:52:47.113Z,99318.38
2022-12-28T20:55:13.796Z,99313.63
2022-12-28T20:57:40.410Z,99295.25
2022-12-28T21:00:07.491Z,99296.09
2022-12-28T21:02:34.180Z,99300.53
2022-12-28T21:05:00.901Z,99292.47
2022-12-28T21:07:27.803Z,99300.84
2022-12-28T21:09:54.505Z,99298.88
2022-12-28T21:12:21.367Z,99305.59
2022-12-28T21:14:48.081Z,99299.19
2022-12-28T21:17:15.017Z,99287.22
2022-12-28T21:19:41.654Z,99296.41
2022-12-28T21:22:08.363Z,99292.47
2022-12-28T21:24:35.075Z,99293.59
2022-12-28T21:27:01.826Z,99291.97
2022-12-28T21:29:28.513Z,99291.97
2022-12-28T21:31:55.281Z,99285.59
2022-12-28T21:34:22.059Z,99295.09
2022-12-28T21:36:49.054Z,99290.66
2022-12-28T21:39:15.699Z,99298.19
2022-12-28T21:41:51.340Z,99293.75
2022-12-28T21:44:19.853Z,99290.13
2022-12-28T21:46:48.225Z,99288.50
2022-12-28T21:49:14.915Z,99294.41
2022-12-28T21:51:41.650Z,99286.03
2022-12-28T21:54:11.388Z,99278.81
2022-12-28T21:56:38.595Z,99273.56
2022-12-28T21:59:05.622Z,99281.13
2022-12-28T22:01:51.025Z,99282.25
2022-12-28T22:04:37.689Z,99273.06
2022-12-28T22:07:04.917Z,99289.25
2022-12-28T22:09:51.488Z,99270.59
2022-12-28T22:12:37.263Z,99269.75
2022-12-28T22:15:24.557Z,99274.84
2022-12-28T22:17:55.452Z,99272.06
2022-12-28T22:20:22.563Z,99268.44
2022-12-28T22:22:49.560Z,99265.16
2022-12-28T22:25:16.247Z,99256.00
2022-12-28T22:27:52.081Z,99261.56
2022-12-28T22:30:18.733Z,99267.44
2022-12-28T22:32:45.353Z,99268.59
2022-12-28T22:35:12.268Z,99272.19
2022-12-28T22:37:46.618Z,99275.28
2022-12-28T22:40:13.295Z,99264.50
2022-12-28T22:42:42.351Z,99264.81
2022-12-28T22:45:12.650Z,99254.78
2022-12-28T22:47:48.801Z,99252.34
2022-12-28T22:50:16.584Z,99244.47
2022-12-28T22:52:43.361Z,99246.78
2022-12-28T22:55:10.633Z,99249.88
2022-12-28T22:57:37.390Z,99246.25
2022-12-28T23:00:07.478Z,99238.72
2022-12-28T23:02:34.400Z,99250.19
2022-12-28T23:05:01.342Z,99249.34
2022-12-28T23:07:28.030Z,99259.69
2022-12-28T23:09:54.830Z,99238.56
2022-12-28T23:12:22.046Z,99254.09
2022-12-28T23:15:07.232Z,99225.75
2022-12-28T23:17:33.839Z,99241.66
2022-12-28T23:20:18.996Z,99233.28
2022-12-28T23:23:04.552Z,99240.00
2022-12-28T23:25:49.638Z,99238.34
2022-12-28T23:28:16.875Z,99252.28
2022-12-28T23:30:45.630Z,99247.03
2022-12-28T23:33:12.384Z,99237.88
2022-12-28T23:35:39.140Z,99225.91
2022-12-28T23:38:08.898Z,99223.41
2022-12-28T23:40:37.827Z,99215.88
2022-12-28T23:43:04.433Z,99217.84
2022-12-28T23:45:31.115Z,99220.63
2022-12-28T23:47:57.843Z,99222.59
2022-12-28T23:50:24.439Z,99227.69
2022-12-28T23:52:51.212Z,99231.28
2022-12-28T23:55:17.942Z,99230.47
2022-12-28T23:57:53.413Z,99237.19
